N378FA EGHR-EGKA
Flight info
| Callsign | N378FA |
|---|---|
| Flight time | 0h 8m |
| Altitude | 3498 |
| Route | DCT |
| Aircraft | DC3/M-VD/A |
Departure
| Time | 2026-04-25 09:29 |
|---|---|
| Airport | Goodwood Aerodrome (EGHR) |
Arrival
| Time | 2026-04-25 09:37 |
|---|---|
| Airport | Brighton City Airport (EGKA) |
| Time | Latitude | Longitude | Altitude | Speed | Heading |
|---|---|---|---|---|---|
| 2026-04-25 08:59 | 50.85685 | -0.75488 | 103 ft | 0 kts | 327° |
| 2026-04-25 09:26 | 50.85686 | -0.75488 | 103 ft | 0 kts | 316° |
| 2026-04-25 09:26 | 50.85688 | -0.75490 | 103 ft | 0 kts | 293° |
| 2026-04-25 09:26 | 50.85689 | -0.75495 | 103 ft | 2 kts | 236° |
| 2026-04-25 09:27 | 50.85649 | -0.75488 | 104 ft | 7 kts | 164° |
| 2026-04-25 09:27 | 50.85636 | -0.75535 | 103 ft | 6 kts | 318° |
| 2026-04-25 09:27 | 50.85638 | -0.75537 | 103 ft | 0 kts | 318° |
| 2026-04-25 09:28 | 50.85657 | -0.75564 | 103 ft | 19 kts | 319° |
| 2026-04-25 09:28 | 50.85873 | -0.75856 | 102 ft | 60 kts | 323° |
| 2026-04-25 09:28 | 50.86239 | -0.76365 | 214 ft | 74 kts | 326° |
| 2026-04-25 09:28 | 50.86757 | -0.76224 | 367 ft | 88 kts | 47° |
| 2026-04-25 09:29 | 50.86874 | -0.75213 | 506 ft | 107 kts | 106° |
| 2026-04-25 09:29 | 50.86471 | -0.74266 | 790 ft | 109 kts | 130° |
| 2026-04-25 09:29 | 50.85969 | -0.73273 | 932 ft | 124 kts | 127° |
| 2026-04-25 09:29 | 50.85449 | -0.72146 | 1175 ft | 128 kts | 127° |
| 2026-04-25 09:30 | 50.84913 | -0.70896 | 1229 ft | 146 kts | 122° |
| 2026-04-25 09:30 | 50.84369 | -0.69493 | 1469 ft | 143 kts | 119° |
| 2026-04-25 09:30 | 50.83957 | -0.68162 | 1805 ft | 137 kts | 114° |
| 2026-04-25 09:30 | 50.83594 | -0.66720 | 1866 ft | 145 kts | 110° |
| 2026-04-25 09:31 | 50.83240 | -0.65220 | 1816 ft | 152 kts | 110° |
| 2026-04-25 09:31 | 50.82860 | -0.63628 | 1846 ft | 153 kts | 110° |
| 2026-04-25 09:31 | 50.82459 | -0.62071 | 1839 ft | 156 kts | 112° |
| 2026-04-25 09:31 | 50.82020 | -0.60471 | 1799 ft | 160 kts | 112° |
| 2026-04-25 09:32 | 50.81580 | -0.58920 | 1986 ft | 148 kts | 114° |
| 2026-04-25 09:32 | 50.81144 | -0.57478 | 2122 ft | 143 kts | 115° |
| 2026-04-25 09:32 | 50.80725 | -0.55999 | 2077 ft | 151 kts | 110° |
| 2026-04-25 09:32 | 50.80443 | -0.54369 | 2072 ft | 155 kts | 98° |
| 2026-04-25 09:33 | 50.80363 | -0.52617 | 1857 ft | 166 kts | 91° |
| 2026-04-25 09:33 | 50.80345 | -0.50816 | 1851 ft | 162 kts | 89° |
| 2026-04-25 09:33 | 50.80353 | -0.49021 | 1743 ft | 165 kts | 88° |
| 2026-04-25 09:33 | 50.80398 | -0.47214 | 1711 ft | 162 kts | 85° |
| 2026-04-25 09:34 | 50.80505 | -0.45450 | 1583 ft | 166 kts | 82° |
| 2026-04-25 09:34 | 50.80694 | -0.43637 | 1464 ft | 168 kts | 80° |
| 2026-04-25 09:34 | 50.80826 | -0.41806 | 1280 ft | 166 kts | 88° |
| 2026-04-25 09:34 | 50.80751 | -0.40023 | 1162 ft | 158 kts | 95° |
| 2026-04-25 09:35 | 50.80722 | -0.38360 | 1161 ft | 145 kts | 86° |
| 2026-04-25 09:35 | 50.80768 | -0.36845 | 1032 ft | 133 kts | 86° |
| 2026-04-25 09:35 | 50.80780 | -0.35441 | 855 ft | 120 kts | 89° |
| 2026-04-25 09:35 | 50.80772 | -0.34231 | 747 ft | 103 kts | 86° |
| 2026-04-25 09:36 | 50.80821 | -0.33129 | 685 ft | 96 kts | 78° |
| 2026-04-25 09:36 | 50.80978 | -0.32115 | 604 ft | 95 kts | 71° |
| 2026-04-25 09:36 | 50.81314 | -0.31278 | 550 ft | 92 kts | 39° |
| 2026-04-25 09:36 | 50.81871 | -0.30746 | 384 ft | 95 kts | 24° |
| 2026-04-25 09:37 | 50.82479 | -0.30400 | 225 ft | 92 kts | 17° |
| 2026-04-25 09:37 | 50.83065 | -0.30039 | 64 ft | 88 kts | 22° |
| 2026-04-25 09:37 | 50.83556 | -0.29730 | 20 ft | 57 kts | 19° |
| 2026-04-25 09:37 | 50.83809 | -0.29568 | 18 ft | 21 kts | 20° |
| 2026-04-25 09:38 | 50.83926 | -0.29497 | 18 ft | 12 kts | 26° |
| 2026-04-25 09:38 | 50.83967 | -0.29466 | 18 ft | 4 kts | 27° |
| 2026-04-25 09:38 | 50.83977 | -0.29454 | 18 ft | 0 kts | 19° |
| 2026-04-25 09:38 | 50.83980 | -0.29452 | 18 ft | 1 kts | 311° |
| 2026-04-25 09:39 | 50.83943 | -0.29488 | 18 ft | 15 kts | 197° |
| 2026-04-25 09:39 | 50.83800 | -0.29556 | 18 ft | 27 kts | 192° |
| 2026-04-25 09:39 | 50.83614 | -0.29677 | 18 ft | 31 kts | 209° |
| 2026-04-25 09:40 | 50.83268 | -0.29910 | 18 ft | 14 kts | 199° |
| 2026-04-25 09:40 | 50.83247 | -0.29855 | 18 ft | 8 kts | 59° |
| 2026-04-25 09:40 | 50.83276 | -0.29768 | 18 ft | 10 kts | 65° |
| 2026-04-25 09:40 | 50.83308 | -0.29666 | 18 ft | 11 kts | 64° |
| 2026-04-25 09:41 | 50.83344 | -0.29550 | 18 ft | 13 kts | 63° |
| 2026-04-25 09:41 | 50.83386 | -0.29415 | 18 ft | 14 kts | 64° |
| 2026-04-25 09:41 | 50.83433 | -0.29265 | 18 ft | 16 kts | 69° |
| 2026-04-25 09:41 | 50.83463 | -0.29101 | 18 ft | 14 kts | 78° |
| 2026-04-25 09:42 | 50.83432 | -0.29051 | 18 ft | 6 kts | 129° |
| 2026-04-25 09:42 | 50.83414 | -0.29036 | 18 ft | 0 kts | 285° |